Time;durP1;ratioP1;P1;durP2;ratioP2;P2;SDS_P1;SDS_P2;PMS_P1;PMS_P2;Temp;Humidity;BMP_temperature;BMP_pressure;BME280_temperature;BME280_humidity;BME280_pressure;Samples;Min_cycle;Max_cycle;Signal;HPM_P1;HPM_P2
2022/08/27 00:01:43;;;;;;;3.00;0.82;;;;;;;26.50;43.75;101426.84;4992294;28;20104;-59
2022/08/27 00:04:09;;;;;;;2.25;1.10;;;;;;;26.57;43.88;101432.31;4986734;28;20038;-61
2022/08/27 00:06:35;;;;;;;4.75;0.70;;;;;;;26.57;43.83;101432.31;4984720;28;20022;-61
2022/08/27 00:09:01;;;;;;;3.63;0.77;;;;;;;26.54;43.76;101432.75;4985803;28;20030;-60
2022/08/27 00:11:26;;;;;;;2.65;0.90;;;;;;;26.56;43.61;101431.47;4985164;28;20097;-60
2022/08/27 00:13:52;;;;;;;4.07;0.90;;;;;;;26.57;44.26;101432.31;4984505;28;20102;-60
2022/08/27 00:16:18;;;;;;;2.58;0.70;;;;;;;26.56;43.63;101425.13;4993118;28;20050;-61
2022/08/27 00:18:45;;;;;;;3.42;0.73;;;;;;;26.54;44.11;101427.25;5000560;28;20049;-60
2022/08/27 00:21:12;;;;;;;3.67;1.05;;;;;;;26.50;44.17;101418.59;4983010;28;20387;-60
2022/08/27 00:23:38;;;;;;;4.85;1.02;;;;;;;26.47;43.75;101421.78;4998582;28;20034;-60
2022/08/27 00:26:05;;;;;;;2.65;0.70;;;;;;;26.41;43.98;101416.34;4983851;28;20085;-60
2022/08/27 00:28:31;;;;;;;2.65;0.65;;;;;;;26.45;44.14;101423.06;4986178;28;20033;-60
2022/08/27 00:30:56;;;;;;;0.90;0.63;;;;;;;26.44;44.58;101421.38;4983502;28;20045;-60
2022/08/27 00:33:22;;;;;;;2.83;1.10;;;;;;;26.39;44.18;101410.19;4984027;28;20019;-60
2022/08/27 00:35:48;;;;;;;3.10;1.48;;;;;;;26.39;43.86;101418.44;4984704;28;20122;-60
2022/08/27 00:38:14;;;;;;;4.50;0.82;;;;;;;26.36;44.44;101407.88;4984182;28;20110;-60
2022/08/27 00:40:40;;;;;;;3.58;0.52;;;;;;;26.38;44.37;101416.78;4988039;28;20110;-59
2022/08/27 00:43:05;;;;;;;2.08;1.30;;;;;;;26.37;44.51;101417.84;4994070;28;20053;-60
2022/08/27 00:45:36;;;;;;;4.10;1.50;;;;;;;26.35;44.04;101411.72;4996482;28;20124;-60
2022/08/27 00:48:03;;;;;;;6.15;1.40;;;;;;;26.35;44.19;101417.22;4995271;28;20037;-60
2022/08/27 00:50:42;;;;;;;2.08;1.20;;;;;;;26.36;43.92;101416.13;4995205;28;20030;-60
2022/08/27 00:53:14;;;;;;;6.18;1.40;;;;;;;26.32;44.04;101413.00;4978898;28;20026;-60
2022/08/27 00:55:46;;;;;;;4.20;0.83;;;;;;;26.34;44.14;101421.00;4991928;28;20043;-61
2022/08/27 00:58:17;;;;;;;3.15;0.80;;;;;;;26.34;44.11;101426.50;4976051;28;20642;-60
2022/08/27 01:00:44;;;;;;;3.20;1.10;;;;;;;26.36;44.27;101424.38;4975796;28;20458;-60
2022/08/27 01:03:10;;;;;;;1.95;0.90;;;;;;;26.35;44.37;101422.72;4991719;28;20015;-60
2022/08/27 01:05:35;;;;;;;5.97;0.73;;;;;;;26.33;44.07;101419.31;4975486;28;20043;-60
2022/08/27 01:08:10;;;;;;;4.13;1.17;;;;;;;26.31;43.90;101413.19;4975556;28;20034;-60
2022/08/27 01:10:37;;;;;;;2.00;0.70;;;;;;;26.29;43.94;101420.81;4995470;28;20392;-60
2022/08/27 01:13:02;;;;;;;3.85;0.88;;;;;;;26.26;43.73;101418.50;4994989;28;20419;-62
2022/08/27 01:15:29;;;;;;;2.10;1.00;;;;;;;26.25;43.72;101416.81;4994957;28;20034;-61
2022/08/27 01:17:56;;;;;;;3.85;0.90;;;;;;;26.20;43.93;101408.38;4994988;28;20484;-61
2022/08/27 01:20:26;;;;;;;2.50;0.95;;;;;;;26.19;44.31;101409.44;4994644;28;20038;-61
2022/08/27 01:23:03;;;;;;;5.25;1.40;;;;;;;26.15;43.84;101408.19;4995797;28;20054;-61
2022/08/27 01:25:29;;;;;;;6.47;1.42;;;;;;;26.12;44.16;101405.84;4995836;28;20030;-61
2022/08/27 01:27:57;;;;;;;4.70;1.15;;;;;;;26.09;44.24;101403.53;4978649;28;20080;-61
2022/08/27 01:30:23;;;;;;;2.30;1.23;;;;;;;26.05;44.24;101401.22;4994868;28;20019;-61
2022/08/27 01:32:49;;;;;;;3.17;1.80;;;;;;;26.02;43.95;101401.66;4995802;28;20026;-61
2022/08/27 01:35:16;;;;;;;5.18;1.00;;;;;;;25.99;43.86;101404.81;4994417;28;20022;-60
2022/08/27 01:37:43;;;;;;;4.25;1.10;;;;;;;25.96;44.02;101401.69;4994714;28;20038;-61
2022/08/27 01:40:09;;;;;;;1.38;0.90;;;;;;;25.92;43.70;101406.75;4978159;28;20022;-60
2022/08/27 01:42:38;;;;;;;4.82;1.30;;;;;;;25.89;43.76;101403.59;4994396;28;20081;-61
2022/08/27 01:45:10;;;;;;;2.97;0.98;;;;;;;25.85;43.92;101397.69;4995618;28;20035;-61
2022/08/27 01:47:36;;;;;;;;;;;;;;;25.85;43.72;101405.91;4995914;28;20029;-61
2022/08/27 01:50:08;;;;;;;5.18;0.82;;;;;;;25.81;43.83;101404.69;4995607;28;19909;-60
2022/08/27 01:52:33;;;;;;;4.85;0.98;;;;;;;25.79;43.83;101411.44;4995301;28;20030;-61
2022/08/27 01:54:58;;;;;;;3.70;0.57;;;;;;;25.77;43.70;101408.91;4994154;28;20117;-61
2022/08/27 01:57:25;;;;;;;2.78;1.05;;;;;;;25.73;43.59;101401.31;4995281;28;20030;-61
2022/08/27 01:59:50;;;;;;;1.33;0.73;;;;;;;25.70;43.99;101408.09;4995488;28;20472;-61
2022/08/27 02:02:16;;;;;;;1.50;0.68;;;;;;;25.68;43.63;101401.13;4993729;28;20022;-60
2022/08/27 02:04:42;;;;;;;4.32;1.17;;;;;;;25.66;43.67;101400.47;4994173;28;20038;-61
2022/08/27 02:07:08;;;;;;;1.92;1.35;;;;;;;25.63;44.39;101407.25;4995215;28;20022;-61
2022/08/27 02:09:34;;;;;;;4.43;1.20;;;;;;;25.60;44.00;101402.16;4994911;28;20365;-61
2022/08/27 02:12:01;;;;;;;3.22;0.95;;;;;;;25.56;43.74;101398.19;4994035;28;20053;-61
2022/08/27 02:14:27;;;;;;;3.78;1.30;;;;;;;25.56;44.14;101406.41;4995194;28;20535;-61
2022/08/27 02:16:53;;;;;;;4.68;1.08;;;;;;;25.54;44.00;101411.28;4994123;28;20029;-60
2022/08/27 02:19:19;;;;;;;2.08;1.17;;;;;;;25.51;43.39;101406.22;4993924;28;20101;-61
2022/08/27 02:21:44;;;;;;;3.35;1.13;;;;;;;25.50;44.06;101409.16;4993899;28;20026;-61
2022/08/27 02:24:09;;;;;;;4.38;1.33;;;;;;;25.47;43.28;101402.19;4994903;28;20029;-61
2022/08/27 02:26:35;;;;;;;3.78;1.13;;;;;;;25.44;43.89;101402.59;4994889;28;20030;-61
2022/08/27 02:29:01;;;;;;;4.60;0.93;;;;;;;25.43;43.70;101411.91;4993615;28;20038;-60
2022/08/27 02:31:26;;;;;;;2.22;1.23;;;;;;;25.41;44.07;101400.25;4993719;28;20035;-61
2022/08/27 02:33:52;;;;;;;2.17;0.80;;;;;;;25.36;43.78;101397.31;4994801;28;20112;-61
2022/08/27 02:36:18;;;;;;;2.15;0.93;;;;;;;25.37;44.10;101404.50;4994831;28;20049;-60
2022/08/27 02:38:43;;;;;;;6.20;1.98;;;;;;;25.37;43.81;101401.75;4994857;28;20045;-60
2022/08/27 02:41:09;;;;;;;3.55;0.95;;;;;;;25.35;44.04;101398.38;5009892;28;20026;-60
2022/08/27 02:43:34;;;;;;;2.28;1.08;;;;;;;25.35;44.27;101395.63;4994849;28;20035;-60
2022/08/27 02:46:01;;;;;;;2.70;0.95;;;;;;;25.34;44.23;101393.94;4992668;28;20034;-60
2022/08/27 02:48:26;;;;;;;2.53;0.68;;;;;;;25.32;44.19;101390.59;4994701;28;20065;-60
2022/08/27 02:50:52;;;;;;;3.42;0.68;;;;;;;25.29;44.26;101388.25;4994674;28;20436;-60
2022/08/27 02:53:17;;;;;;;5.32;1.20;;;;;;;25.30;43.98;101384.44;4993260;28;20411;-60
2022/08/27 02:55:43;;;;;;;5.22;1.45;;;;;;;25.31;43.85;101384.25;4993305;28;20054;-60
2022/08/27 02:58:09;;;;;;;1.77;0.82;;;;;;;25.30;43.80;101381.72;4994551;28;20081;-60
2022/08/27 03:00:34;;;;;;;2.13;1.02;;;;;;;25.30;43.72;101384.44;4993416;28;20030;-60
2022/08/27 03:03:00;;;;;;;1.38;0.95;;;;;;;25.30;44.23;101384.44;4994349;28;20472;-60
2022/08/27 03:05:27;;;;;;;3.13;1.05;;;;;;;25.29;44.30;101388.25;4994293;28;20034;-60
2022/08/27 03:07:52;;;;;;;2.75;1.00;;;;;;;25.28;43.48;101378.34;4994639;28;20026;-60
2022/08/27 03:10:19;;;;;;;4.18;0.88;;;;;;;25.29;43.88;101382.78;4994315;28;20153;-60
2022/08/27 03:12:44;;;;;;;2.15;1.30;;;;;;;25.30;44.30;101376.22;4994660;28;20443;-61
2022/08/27 03:15:13;;;;;;;3.25;0.90;;;;;;;25.31;43.96;101375.19;4994476;28;20034;-60
2022/08/27 03:20:23;;;;;;;3.42;1.42;;;;;;;25.30;44.32;101387.19;4994253;28;20093;-60
2022/08/27 03:22:49;;;;;;;2.75;0.70;;;;;;;25.28;43.95;101372.84;4993013;28;20030;-60
2022/08/27 03:25:14;;;;;;;2.78;0.88;;;;;;;25.25;43.83;101371.38;4993018;28;20542;-61
2022/08/27 03:27:40;;;;;;;6.40;1.10;;;;;;;25.26;44.16;101378.56;4994328;28;20092;-61
2022/08/27 03:30:09;;;;;;;2.58;0.65;;;;;;;25.26;44.60;101389.53;4994108;28;20466;-61
2022/08/27 03:32:35;;;;;;;4.80;1.00;;;;;;;25.30;43.83;101384.44;4994408;28;20049;-61
2022/08/27 03:35:00;;;;;;;2.50;0.98;;;;;;;25.30;43.86;101390.78;4993172;28;20445;-60
2022/08/27 03:37:25;;;;;;;5.43;1.10;;;;;;;25.31;43.53;101383.41;4992822;28;20089;-61
2022/08/27 03:39:51;;;;;;;6.20;1.60;;;;;;;25.30;43.74;101376.22;4993077;28;20117;-61
2022/08/27 03:42:17;;;;;;;1.52;1.05;;;;;;;25.29;43.71;101371.81;4994030;28;20035;-60
2022/08/27 03:44:42;;;;;;;4.65;1.23;;;;;;;25.28;43.99;101379.19;4994021;28;20061;-61
2022/08/27 03:47:07;;;;;;;3.22;1.10;;;;;;;25.27;43.68;101377.50;4992961;28;20042;-60
2022/08/27 03:49:33;;;;;;;4.03;0.90;;;;;;;25.23;43.78;101372.66;4994049;28;20088;-60
2022/08/27 03:51:58;;;;;;;2.10;1.10;;;;;;;25.23;44.01;101375.41;4992871;28;20480;-62
2022/08/27 03:54:24;;;;;;;2.40;0.95;;;;;;;25.23;43.77;101384.47;4993747;28;20137;-60
2022/08/27 03:56:50;;;;;;;5.55;0.95;;;;;;;25.23;43.93;101389.09;4994088;28;20061;-60
2022/08/27 03:59:15;;;;;;;5.60;0.93;;;;;;;25.21;44.06;101385.75;4996554;28;20101;-61
2022/08/27 04:01:42;;;;;;;2.42;1.00;;;;;;;25.20;43.76;101382.16;4997713;28;20030;-61
2022/08/27 04:04:07;;;;;;;4.40;1.20;;;;;;;25.20;44.21;101379.41;4997413;28;20031;-60
2022/08/27 04:06:34;;;;;;;3.92;1.23;;;;;;;25.20;44.19;101375.81;4980047;28;20483;-60
2022/08/27 04:08:59;;;;;;;1.33;0.90;;;;;;;25.23;44.25;101383.63;4996407;28;20433;-61
2022/08/27 04:11:25;;;;;;;7.00;1.17;;;;;;;25.21;43.55;101388.47;4997303;28;20060;-61
2022/08/27 04:13:50;;;;;;;4.32;1.17;;;;;;;25.20;43.13;101384.03;4997237;28;20037;-60
2022/08/27 04:16:15;;;;;;;2.00;1.10;;;;;;;25.21;43.67;101391.22;4979944;28;20026;-60
2022/08/27 04:18:41;;;;;;;2.65;1.25;;;;;;;25.18;43.80;101389.72;4996140;28;20037;-60
2022/08/27 04:21:11;;;;;;;2.50;1.00;;;;;;;25.15;43.80;101386.56;4997113;28;20036;-61
2022/08/27 04:23:38;;;;;;;2.92;1.30;;;;;;;25.17;44.39;101389.94;4995994;28;20026;-61
2022/08/27 04:26:05;;;;;;;3.25;1.20;;;;;;;25.14;43.88;101393.09;4997308;28;20118;-61
2022/08/27 04:28:31;;;;;;;4.63;1.35;;;;;;;25.14;43.84;101391.22;4996972;28;20105;-61
2022/08/27 04:30:56;;;;;;;1.13;0.80;;;;;;;25.14;44.25;101390.38;4997149;28;20112;-60
2022/08/27 04:33:21;;;;;;;4.35;1.00;;;;;;;25.13;43.92;101395.00;5011937;28;20443;-61
2022/08/27 04:35:58;;;;;;;3.42;0.98;;;;;;;25.12;43.77;101393.34;4996846;28;20480;-61
2022/08/27 04:38:24;;;;;;;4.32;1.05;;;;;;;25.11;44.34;101386.16;4995465;28;20479;-61
2022/08/27 04:43:33;;;;;;;2.38;1.13;;;;;;;25.08;44.04;101397.53;4996399;28;20057;-61
2022/08/27 04:45:59;;;;;;;3.45;2.00;;;;;;;25.07;44.17;101401.31;4995412;28;20117;-61
2022/08/27 04:48:25;;;;;;;7.47;1.65;;;;;;;25.06;44.32;101410.63;4995321;28;20109;-60
2022/08/27 04:50:50;;;;;;;5.07;1.25;;;;;;;25.05;43.98;101408.06;4995191;28;20034;-61
2022/08/27 04:53:16;;;;;;;2.30;1.38;;;;;;;25.05;43.98;101411.66;4996389;28;20031;-60
2022/08/27 04:55:47;;;;;;;3.63;0.90;;;;;;;25.06;44.66;101405.13;4996151;28;20077;-61
2022/08/27 04:58:13;;;;;;;5.15;1.48;;;;;;;25.04;44.62;101403.66;4996309;28;20074;-61
2022/08/27 05:00:43;;;;;;;2.38;1.25;;;;;;;25.06;43.91;101409.78;5011557;28;20035;-60
2022/08/27 05:03:08;;;;;;;3.90;1.38;;;;;;;25.06;44.64;101409.78;4995397;28;20030;-60
2022/08/27 05:05:34;;;;;;;1.67;1.05;;;;;;;25.06;44.22;101415.25;4996399;28;20034;-60
2022/08/27 05:07:59;;;;;;;2.72;1.10;;;;;;;25.05;44.48;101408.91;4994620;28;20026;-61
2022/08/27 05:10:24;;;;;;;4.60;1.15;;;;;;;25.05;44.13;101403.44;4995813;28;20030;-61
2022/08/27 05:12:50;;;;;;;3.70;1.08;;;;;;;25.06;43.99;101407.03;4996440;28;20034;-60
2022/08/27 05:15:15;;;;;;;6.55;1.48;;;;;;;25.08;44.05;101407.66;4996002;28;20387;-61
2022/08/27 05:17:42;;;;;;;5.50;1.30;;;;;;;25.07;44.48;101408.72;4995015;28;20034;-61
2022/08/27 05:20:09;;;;;;;1.58;1.33;;;;;;;25.08;44.64;101411.25;4995016;28;20026;-61
2022/08/27 05:22:34;;;;;;;4.43;1.10;;;;;;;25.10;44.11;101411.06;4996157;28;20026;-61
2022/08/27 05:25:00;;;;;;;1.63;1.13;;;;;;;25.13;44.11;101413.34;4994673;28;20077;-61
2022/08/27 05:27:25;;;;;;;5.57;1.27;;;;;;;25.13;44.84;101416.09;4996017;28;20033;-60
2022/08/27 05:29:51;;;;;;;7.07;1.70;;;;;;;24.76;44.35;101354.47;4996072;28;20034;-61
2022/08/27 05:32:16;;;;;;;2.05;1.13;;;;;;;25.13;44.75;101407.88;4995991;28;20026;-60
2022/08/27 05:34:41;;;;;;;5.05;1.30;;;;;;;25.19;44.38;101420.75;4978357;28;20034;-60
2022/08/27 05:37:07;;;;;;;2.47;1.50;;;;;;;25.20;44.54;101422.44;4995870;28;20396;-61
2022/08/27 05:39:33;;;;;;;5.35;1.30;;;;;;;25.23;44.74;101417.38;4994350;28;20105;-60
2022/08/27 05:41:58;;;;;;;4.25;1.20;;;;;;;25.25;44.62;101425.38;4995592;28;20037;-61
2022/08/27 05:44:23;;;;;;;2.90;1.25;;;;;;;25.26;44.18;101427.09;4995801;28;20054;-61
2022/08/27 05:46:49;;;;;;;2.97;1.30;;;;;;;25.27;44.28;101426.88;4994542;28;20475;-61
2022/08/27 05:49:15;;;;;;;3.63;1.40;;;;;;;25.28;44.32;101434.03;5010722;28;20113;-62
2022/08/27 05:51:40;;;;;;;6.25;1.88;;;;;;;25.31;44.75;101427.28;4994458;28;20041;-62
2022/08/27 05:54:15;;;;;;;4.53;1.63;;;;;;;25.32;44.33;101424.31;4994039;28;20030;-61
2022/08/27 05:56:41;;;;;;;3.90;1.33;;;;;;;25.36;44.73;101419.25;4994493;28;20037;-60
2022/08/27 06:01:53;;;;;;;5.20;1.58;;;;;;;25.40;44.58;101434.25;4995245;28;20161;-61
2022/08/27 06:04:19;;;;;;;5.72;1.13;;;;;;;25.42;44.24;101426.66;4995426;28;20027;-61
2022/08/27 06:06:46;;;;;;;4.25;1.52;;;;;;;25.46;44.43;101434.25;4995098;28;20030;-61
2022/08/27 06:09:14;;;;;;;5.43;1.83;;;;;;;25.48;44.25;101428.59;4977828;28;20034;-60
2022/08/27 06:11:39;;;;;;;6.40;2.20;;;;;;;25.51;44.53;101433.66;4995345;28;20018;-60
2022/08/27 06:14:05;;;;;;;7.55;1.77;;;;;;;25.54;44.13;101430.50;4995106;28;20373;-60
2022/08/27 06:16:30;;;;;;;2.00;1.17;;;;;;;25.54;44.76;101425.00;4977591;28;20125;-60
2022/08/27 06:18:56;;;;;;;5.63;1.50;;;;;;;25.57;44.03;101430.06;4993966;28;20105;-60
2022/08/27 06:21:22;;;;;;;3.08;1.58;;;;;;;25.61;44.52;101431.31;4993326;28;20022;-60
2022/08/27 06:23:48;;;;;;;4.05;1.85;;;;;;;25.66;44.02;101430.66;4993728;28;20031;-60
2022/08/27 06:26:17;;;;;;;5.50;1.88;;;;;;;25.68;43.70;101429.41;4993368;28;20476;-61
2022/08/27 06:28:43;;;;;;;4.00;1.52;;;;;;;25.70;44.00;101434.69;5009751;28;20372;-60
2022/08/27 06:31:17;;;;;;;9.90;1.95;;;;;;;25.75;44.01;101433.00;4994738;28;20026;-60
2022/08/27 06:33:44;;;;;;;4.95;1.65;;;;;;;25.79;44.19;101434.25;4994946;28;20382;-60
2022/08/27 06:36:12;;;;;;;6.68;1.55;;;;;;;25.83;44.29;101435.50;4993397;28;20030;-60
2022/08/27 06:38:38;;;;;;;8.07;1.52;;;;;;;25.87;44.16;101431.28;4994479;28;20081;-60
2022/08/27 06:41:05;;;;;;;4.40;1.40;;;;;;;25.88;43.63;101429.38;4993372;28;20479;-60
2022/08/27 06:43:30;;;;;;;8.18;1.80;;;;;;;25.91;44.04;101427.03;4977005;28;20113;-61
2022/08/27 06:45:56;;;;;;;2.28;1.40;;;;;;;26.00;43.71;101431.25;4994375;28;20053;-61
2022/08/27 06:48:21;;;;;;;2.83;1.83;;;;;;;26.03;43.76;101436.31;4994347;28;20092;-60
2022/08/27 06:50:47;;;;;;;3.88;1.58;;;;;;;26.05;43.68;101431.44;4994276;28;20023;-61
2022/08/27 06:53:13;;;;;;;6.95;1.75;;;;;;;26.09;43.46;101433.75;4993022;28;20595;-61
2022/08/27 06:55:46;;;;;;;4.13;2.05;;;;;;;26.10;43.78;101440.94;4992780;28;20058;-60
2022/08/27 06:58:11;;;;;;;2.40;1.42;;;;;;;26.15;43.53;101433.78;4994230;28;20042;-61
2022/08/27 07:00:37;;;;;;;5.35;2.00;;;;;;;26.20;43.83;101436.72;4976616;28;20040;-60
2022/08/27 07:03:05;;;;;;;5.50;1.42;;;;;;;26.25;43.37;101436.03;4993964;28;20037;-60
2022/08/27 07:05:31;;;;;;;10.55;1.83;;;;;;;26.29;43.24;101429.91;4992827;28;20104;-60
2022/08/27 07:07:57;;;;;;;3.58;1.45;;;;;;;26.35;43.38;101433.69;4993932;28;20391;-60
2022/08/27 07:10:23;;;;;;;2.35;1.52;;;;;;;26.39;42.91;101429.44;4993638;28;20031;-62
2022/08/27 07:12:49;;;;;;;4.32;1.67;;;;;;;26.49;43.59;101429.84;4992381;28;20484;-62
2022/08/27 07:15:14;;;;;;;4.85;1.20;;;;;;;26.63;43.41;101434.19;4992802;28;20093;-61
2022/08/27 07:17:40;;;;;;;3.60;1.20;;;;;;;26.83;43.31;101426.69;4993647;28;20033;-62
2022/08/27 07:20:06;;;;;;;1.75;1.25;;;;;;;26.98;42.67;101424.50;4993640;28;20030;-62
2022/08/27 07:22:31;;;;;;;4.97;1.50;;;;;;;27.12;42.48;101431.59;4992258;28;20022;-62
2022/08/27 07:24:56;;;;;;;8.20;1.33;;;;;;;27.21;42.59;101434.06;5008635;28;20027;-62
2022/08/27 07:27:22;;;;;;;1.58;1.10;;;;;;;27.29;42.30;101431.03;4992456;28;20088;-62
2022/08/27 07:29:47;;;;;;;2.75;1.50;;;;;;;27.38;41.91;101435.19;4977986;28;20523;-63
2022/08/27 07:32:13;;;;;;;4.55;1.27;;;;;;;27.50;41.96;101439.75;4975546;28;20037;-63
2022/08/27 07:34:38;;;;;;;4.35;1.50;;;;;;;27.59;42.11;101435.66;4960437;28;20034;-63
2022/08/27 07:37:03;;;;;;;2.60;1.20;;;;;;;27.70;41.60;101445.09;4977814;28;20480;-60
2022/08/27 07:39:29;;;;;;;6.55;2.00;;;;;;;27.77;41.62;101451.38;4960824;28;20037;-60
2022/08/27 07:44:40;;;;;;;3.25;1.60;;;;;;;27.73;40.95;101444.63;4977853;28;20567;-60
2022/08/27 07:47:06;;;;;;;7.18;2.00;;;;;;;27.68;41.63;101441.72;4976671;28;20106;-60
2022/08/27 07:49:33;;;;;;;4.90;1.40;;;;;;;27.60;41.11;101440.09;4976637;28;20121;-61
2022/08/27 07:51:59;;;;;;;3.55;1.58;;;;;;;27.58;41.66;101447.72;4977993;28;20034;-60
2022/08/27 07:54:24;;;;;;;2.50;1.45;;;;;;;27.56;41.55;101449.88;4976407;28;20050;-61
2022/08/27 07:56:49;;;;;;;4.15;1.73;;;;;;;27.53;41.47;101443.97;4977615;28;20034;-61
2022/08/27 07:59:16;;;;;;;6.07;1.70;;;;;;;27.55;41.54;101455.63;4977717;28;20055;-60
2022/08/27 08:01:41;;;;;;;5.22;1.77;;;;;;;27.52;40.95;101456.06;4977434;28;20616;-61
2022/08/27 08:04:08;;;;;;;4.50;1.67;;;;;;;27.51;41.32;101457.13;4976240;28;20043;-60
2022/08/27 08:06:35;;;;;;;5.60;1.88;;;;;;;27.48;41.71;101457.56;4977662;28;20435;-60
2022/08/27 08:09:01;;;;;;;2.63;1.63;;;;;;;27.47;41.50;101462.22;4977466;28;20030;-61
2022/08/27 08:11:26;;;;;;;4.18;1.70;;;;;;;27.45;41.21;101464.38;4977347;28;20034;-60
2022/08/27 08:13:51;;;;;;;4.25;1.70;;;;;;;27.43;41.71;101462.91;4977420;28;20081;-61
2022/08/27 08:16:17;;;;;;;5.28;1.58;;;;;;;27.39;40.92;101459.72;4977480;28;20051;-61
2022/08/27 08:18:42;;;;;;;6.90;2.05;;;;;;;27.33;40.81;101470.81;4977522;28;20046;-61
2022/08/27 08:21:10;;;;;;;5.28;1.58;;;;;;;27.33;40.97;101465.31;4977177;28;20066;-60
2022/08/27 08:23:37;;;;;;;4.40;1.98;;;;;;;27.33;41.52;101466.13;4977039;28;20023;-61
2022/08/27 08:26:03;;;;;;;3.20;1.58;;;;;;;27.37;40.82;101469.28;4975854;28;20034;-61
2022/08/27 08:28:29;;;;;;;3.90;1.23;;;;;;;27.41;41.35;101473.31;4976345;28;20027;-61
2022/08/27 08:30:55;;;;;;;5.30;1.83;;;;;;;27.42;41.26;101463.97;4975888;28;20429;-60
2022/08/27 08:33:21;;;;;;;5.35;1.77;;;;;;;27.44;40.90;101472.88;4977137;28;20027;-61
2022/08/27 08:35:47;;;;;;;7.18;2.45;;;;;;;27.46;41.37;101473.47;4975908;28;20037;-61
2022/08/27 08:38:14;;;;;;;3.80;1.75;;;;;;;27.47;41.39;101473.25;4977338;28;20027;-60
2022/08/27 08:40:45;;;;;;;8.82;2.08;;;;;;;27.38;40.71;101462.72;4976976;28;20031;-60
2022/08/27 08:43:37;;;;;;;3.67;2.03;;;;;;;27.44;41.02;101475.63;4975739;28;20027;-60
2022/08/27 08:46:19;;;;;;;3.65;1.77;;;;;;;27.44;41.51;101473.72;4969706;28;20500;-61
2022/08/27 08:48:47;;;;;;;2.05;1.50;;;;;;;27.46;41.30;101485.34;4975732;28;20031;-60
2022/08/27 08:51:19;;;;;;;10.35;1.95;;;;;;;27.49;41.32;101475.78;4975704;28;20027;-60
2022/08/27 08:53:51;;;;;;;;;;;;;;;27.54;41.46;101484.19;4976079;28;20031;-61
2022/08/27 08:56:22;;;;;;;4.88;1.75;;;;;;;27.57;40.74;101492.00;4975309;28;19918;-61
2022/08/27 08:59:00;;;;;;;3.20;1.75;;;;;;;27.62;41.17;101486.69;4975504;28;20072;-61
2022/08/27 09:01:26;;;;;;;6.97;1.90;;;;;;;27.63;41.09;101482.88;4976646;28;20062;-61
2022/08/27 09:03:57;;;;;;;3.38;1.77;;;;;;;27.67;40.91;101482.19;4976754;28;20182;-61
2022/08/27 09:06:47;;;;;;;5.22;1.63;;;;;;;27.77;41.23;101495.44;4975375;28;20080;-61
2022/08/27 09:09:31;;;;;;;7.68;2.17;;;;;;;27.83;40.42;101493.69;4975573;28;20117;-61
2022/08/27 09:12:04;;;;;;;3.65;2.03;;;;;;;27.86;40.22;101494.09;4976406;28;20027;-62
2022/08/27 09:14:35;;;;;;;5.65;2.38;;;;;;;27.93;41.04;101494.88;4975175;28;20058;-60
2022/08/27 09:17:01;;;;;;;3.97;2.00;;;;;;;27.95;40.78;101491.88;4974973;28;20058;-60
2022/08/27 09:19:27;;;;;;;4.60;2.00;;;;;;;27.97;39.83;101496.09;4975365;28;20034;-61
2022/08/27 09:22:14;;;;;;;5.22;1.83;;;;;;;28.01;40.12;101485.44;4976441;28;20038;-60
2022/08/27 09:24:55;;;;;;;3.40;1.98;;;;;;;28.04;39.74;101490.53;4976248;28;20034;-60
2022/08/27 09:27:21;;;;;;;6.40;2.03;;;;;;;28.03;40.33;101484.19;4974916;28;20089;-61
2022/08/27 09:29:50;;;;;;;6.70;2.30;;;;;;;28.08;39.85;101487.13;4974738;28;20030;-60
2022/08/27 09:32:20;;;;;;;6.18;2.00;;;;;;;28.11;40.47;101494.91;4975990;28;20054;-60
2022/08/27 09:34:45;;;;;;;2.80;1.80;;;;;;;28.12;40.22;101493.84;4976027;28;20027;-60
2022/08/27 09:37:21;;;;;;;4.78;2.30;;;;;;;28.15;39.71;101495.28;4974664;28;20094;-60
2022/08/27 09:40:00;;;;;;;4.85;2.78;;;;;;;28.16;40.39;101503.34;4958477;28;20392;-60
2022/08/27 09:42:29;;;;;;;4.60;2.20;;;;;;;28.15;39.88;101504.41;4974482;28;20019;-61
2022/08/27 09:44:55;;;;;;;7.97;2.70;;;;;;;28.12;40.06;101493.84;4974567;28;20030;-61
2022/08/27 09:47:21;;;;;;;6.70;2.40;;;;;;;28.20;40.41;101503.72;4958400;28;20038;-60
2022/08/27 09:49:47;;;;;;;7.00;2.15;;;;;;;28.19;40.21;101499.28;4974593;28;20034;-61
2022/08/27 09:52:29;;;;;;;5.70;1.80;;;;;;;28.25;40.03;101501.97;4975645;28;20034;-61
2022/08/27 09:54:56;;;;;;;3.63;2.10;;;;;;;28.28;40.00;101496.00;4973945;28;20631;-61
2022/08/27 09:57:53;;;;;;;11.45;2.70;;;;;;;28.32;39.27;101496.38;4975617;28;20038;-61
2022/08/27 10:00:28;;;;;;;8.90;2.13;;;;;;;28.38;39.50;101502.91;4953473;28;20039;-62
2022/08/27 10:02:53;;;;;;;3.70;1.88;;;;;;;28.40;39.63;101501.59;4958082;28;20507;-61
2022/08/27 10:05:26;;;;;;;3.22;2.00;;;;;;;28.47;39.75;101501.53;4974059;28;20121;-62
2022/08/27 10:07:58;;;;;;;3.33;1.60;;;;;;;28.52;39.56;101493.41;4975512;28;20038;-61
2022/08/27 10:10:48;;;;;;;4.35;1.77;;;;;;;28.59;39.92;101499.66;4957961;28;20033;-61
2022/08/27 10:13:20;;;;;;;4.05;2.40;;;;;;;28.63;38.98;101500.91;4958403;28;20030;-61
2022/08/27 10:16:05;;;;;;;9.80;2.75;;;;;;;28.65;38.85;101496.84;4974184;28;20488;-61
2022/08/27 10:18:40;;;;;;;4.57;1.83;;;;;;;28.71;38.83;101497.84;4973921;28;20473;-61
2022/08/27 10:21:34;;;;;;;9.07;1.90;;;;;;;28.79;39.35;101486.50;4975238;28;20042;-61
2022/08/27 10:24:24;;;;;;;3.30;1.60;;;;;;;28.85;39.19;101491.06;4952973;28;20101;-61
2022/08/27 10:27:18;;;;;;;4.25;1.50;;;;;;;28.94;38.45;101497.97;4975062;28;20026;-61
2022/08/27 10:30:00;;;;;;;3.75;1.52;;;;;;;29.04;38.53;101494.63;4973619;28;20443;-62
2022/08/27 10:32:50;;;;;;;3.33;1.25;;;;;;;29.12;38.47;101500.66;4973558;28;20025;-62
2022/08/27 10:35:29;;;;;;;5.22;1.40;;;;;;;29.21;38.52;101499.25;4974674;28;20077;-62
2022/08/27 10:38:05;;;;;;;3.88;1.50;;;;;;;29.30;37.89;101492.34;4957292;28;20029;-62
2022/08/27 10:40:35;;;;;;;6.28;1.95;;;;;;;29.36;37.70;101496.09;4974596;28;20038;-62
2022/08/27 10:43:13;;;;;;;7.10;1.33;;;;;;;29.41;38.56;101501.75;4973365;28;20365;-63
2022/08/27 10:45:59;;;;;;;4.68;1.42;;;;;;;29.50;37.86;101491.19;4973298;28;20033;-63
2022/08/27 10:48:27;;;;;;;4.28;1.77;;;;;;;29.59;37.53;101495.28;4974184;28;20035;-62
2022/08/27 10:51:10;;;;;;;6.07;1.45;;;;;;;29.63;37.64;101491.81;4974523;28;20027;-62
2022/08/27 10:53:41;;;;;;;4.50;1.58;;;;;;;29.69;37.70;101487.25;4974569;28;20050;-62
2022/08/27 10:56:10;;;;;;;4.55;1.90;;;;;;;29.75;37.63;101491.81;4974273;28;20574;-63
2022/08/27 10:59:11;;;;;;;3.00;1.20;;;;;;;29.78;36.95;101492.19;4974319;28;20035;-63
2022/08/27 11:01:47;;;;;;;4.75;1.80;;;;;;;29.81;37.51;101493.66;4973836;28;20078;-62
2022/08/27 11:04:17;;;;;;;4.20;1.38;;;;;;;29.84;37.19;101493.19;4974323;28;20492;-63
2022/08/27 11:06:56;;;;;;;3.45;1.50;;;;;;;29.88;37.57;101488.84;4973894;28;20030;-62
2022/08/27 11:09:43;;;;;;;4.60;1.63;;;;;;;29.97;36.94;101492.94;4977230;28;20030;-62
2022/08/27 11:12:13;;;;;;;3.22;1.48;;;;;;;30.00;36.94;101493.31;4978256;28;20034;-63
2022/08/27 11:14:51;;;;;;;5.05;1.88;;;;;;;30.02;36.99;101490.28;4977106;28;20592;-62
2022/08/27 11:17:28;;;;;;;5.57;1.63;;;;;;;30.09;36.96;101485.50;4978266;28;20373;-63
2022/08/27 11:20:00;;;;;;;3.17;1.50;;;;;;;30.17;37.29;101485.13;4976929;28;20552;-63
2022/08/27 11:22:33;;;;;;;2.93;1.67;;;;;;;30.23;36.32;101483.31;4960682;28;20027;-62
2022/08/27 11:25:10;;;;;;;3.20;1.45;;;;;;;30.34;36.24;101476.91;4976982;28;20038;-63
2022/08/27 11:27:36;;;;;;;2.42;1.45;;;;;;;30.39;36.62;101483.44;4978003;28;20045;-63
2022/08/27 11:30:15;;;;;;;2.33;1.40;;;;;;;30.46;36.17;101475.81;4976983;28;20046;-63
2022/08/27 11:33:03;;;;;;;3.22;2.38;;;;;;;30.51;36.21;101484.22;4976836;28;20026;-62
2022/08/27 11:36:19;;;;;;;6.20;1.70;;;;;;;30.50;36.26;101484.47;4977970;28;20057;-62
2022/08/27 11:39:04;;;;;;;6.70;1.92;;;;;;;30.44;36.22;101478.00;4960923;28;20047;-63
2022/08/27 11:41:45;;;;;;;5.65;2.10;;;;;;;30.48;35.70;101479.22;4977793;28;20163;-63
2022/08/27 11:44:13;;;;;;;3.25;1.63;;;;;;;30.52;35.65;101480.38;4977701;28;20118;-62
2022/08/27 11:46:45;;;;;;;5.85;1.98;;;;;;;30.58;35.93;101484.94;4976457;28;20019;-62